Kezdőlap
METAR-TAF:

METAR-TAF

Repülőterek :

Cerklje ob Krki, Szlovénia

földrajzi szélesség: 45-53-59N, földrajzi hosszúság: 15-30-55E, magasság: 157 m

Jelenlegi meteorológiai megfigyelések

A jelentés 40 perccel ezelõtt készült, 22:30 UTC
Különbözõ irányokból fújó szél 1 kt
Hőmérséklet 14°C
Páratartalom 94%
Légköri nyomás 1016 hPa
Látótávolság 10 km, vagy több

METAR: LJCE 272230Z AUTO VRB01KT 9999 NCD 14/13 Q1016

Idő: 01:10 (23:10 UTC)

Előrejelzés

A jelentés 3 órával és 10 perccel ezelõtt készült, 20:00 UTC
Az előrejelzés 27-én 21 óra UTC és 28-én 06 óra UTC között érvényes
Különbözõ irányokból fújó szél 2 kt
Látótávolság 10 km, vagy több
felhőtlen 1500 m magasságban, és nincs gomolyfelhõ

TAF: LJCE 272000Z 2721/2806 VRB02KT CAVOK

Meteorológiai megfigyelések és előrejelzések több, mint 4000 repülőtéren (METAR és TAF jelentéseket).

A térképen piros és sárga pontok jelzik az elérhető meteorológiai állomásokat.

Mozgassa az egeret a pont fölött, hogy megjelenjen az állomás neve.

Azután kattintson az időjárási megfigyelések és előrejelzések megtekintéséhez.

A térkép megváltoztatása: kattintson a fekete keresztel jelölt zöld gombra ráközelítéshez, a vonallal jelölt zöld gombra távolításhoz, vagy a zöld nyilakra a szomszédos térképek eléréséhez.


METAR-TAF: